sensor_id;sensor_type;location;lat;lon;timestamp;temperature;humidity
12568;DHT22;6349;50.904;6.136;2022-08-19T00:01:15;20.70;99.90
12568;DHT22;6349;50.904;6.136;2022-08-19T00:03:16;20.70;99.90
12568;DHT22;6349;50.904;6.136;2022-08-19T00:05:18;20.70;99.90
12568;DHT22;6349;50.904;6.136;2022-08-19T00:07:19;20.70;99.90
12568;DHT22;6349;50.904;6.136;2022-08-19T00:09:21;20.60;99.90
12568;DHT22;6349;50.904;6.136;2022-08-19T00:11:22;20.60;99.90
12568;DHT22;6349;50.904;6.136;2022-08-19T00:13:23;20.60;99.90
12568;DHT22;6349;50.904;6.136;2022-08-19T00:15:24;20.60;99.90
12568;DHT22;6349;50.904;6.136;2022-08-19T00:17:24;20.60;99.90
12568;DHT22;6349;50.904;6.136;2022-08-19T00:19:25;20.50;99.90
12568;DHT22;6349;50.904;6.136;2022-08-19T00:21:26;20.50;99.90
12568;DHT22;6349;50.904;6.136;2022-08-19T00:23:27;20.50;99.90
12568;DHT22;6349;50.904;6.136;2022-08-19T00:25:28;20.40;99.90
12568;DHT22;6349;50.904;6.136;2022-08-19T00:27:28;20.40;99.90
12568;DHT22;6349;50.904;6.136;2022-08-19T00:29:29;20.50;99.90
12568;DHT22;6349;50.904;6.136;2022-08-19T00:31:29;20.50;99.90
12568;DHT22;6349;50.904;6.136;2022-08-19T00:33:32;20.50;99.90
12568;DHT22;6349;50.904;6.136;2022-08-19T00:35:32;20.40;99.90
12568;DHT22;6349;50.904;6.136;2022-08-19T00:37:33;20.40;99.90
12568;DHT22;6349;50.904;6.136;2022-08-19T00:39:35;20.40;99.90
12568;DHT22;6349;50.904;6.136;2022-08-19T00:41:37;20.40;99.90
12568;DHT22;6349;50.904;6.136;2022-08-19T00:43:37;20.40;99.90
12568;DHT22;6349;50.904;6.136;2022-08-19T00:45:39;20.30;99.90
12568;DHT22;6349;50.904;6.136;2022-08-19T00:47:42;20.30;99.90
12568;DHT22;6349;50.904;6.136;2022-08-19T00:49:46;20.30;99.90
12568;DHT22;6349;50.904;6.136;2022-08-19T00:51:55;20.20;99.90
12568;DHT22;6349;50.904;6.136;2022-08-19T00:53:57;20.20;99.90
12568;DHT22;6349;50.904;6.136;2022-08-19T00:56:00;20.20;99.90
12568;DHT22;6349;50.904;6.136;2022-08-19T00:58:06;20.10;99.90
12568;DHT22;6349;50.904;6.136;2022-08-19T01:00:11;20.10;99.90
12568;DHT22;6349;50.904;6.136;2022-08-19T01:02:15;20.00;99.90
12568;DHT22;6349;50.904;6.136;2022-08-19T01:04:16;20.00;99.90
12568;DHT22;6349;50.904;6.136;2022-08-19T01:06:17;20.00;99.90
12568;DHT22;6349;50.904;6.136;2022-08-19T01:08:18;20.00;99.90
12568;DHT22;6349;50.904;6.136;2022-08-19T01:10:23;20.00;99.90
12568;DHT22;6349;50.904;6.136;2022-08-19T01:12:24;19.90;99.90
12568;DHT22;6349;50.904;6.136;2022-08-19T01:14:25;19.80;99.90
12568;DHT22;6349;50.904;6.136;2022-08-19T01:16:27;19.80;99.90
12568;DHT22;6349;50.904;6.136;2022-08-19T01:18:30;19.80;99.90
12568;DHT22;6349;50.904;6.136;2022-08-19T01:20:32;19.80;99.90
12568;DHT22;6349;50.904;6.136;2022-08-19T01:22:44;19.80;99.90
12568;DHT22;6349;50.904;6.136;2022-08-19T01:24:45;19.70;99.90
12568;DHT22;6349;50.904;6.136;2022-08-19T01:26:46;19.70;99.90
12568;DHT22;6349;50.904;6.136;2022-08-19T01:28:50;19.70;99.90
12568;DHT22;6349;50.904;6.136;2022-08-19T01:30:52;19.70;99.90
12568;DHT22;6349;50.904;6.136;2022-08-19T01:32:54;19.70;99.90
12568;DHT22;6349;50.904;6.136;2022-08-19T01:34:55;19.70;99.90
12568;DHT22;6349;50.904;6.136;2022-08-19T01:36:55;19.70;99.90
12568;DHT22;6349;50.904;6.136;2022-08-19T01:38:57;19.70;99.90
12568;DHT22;6349;50.904;6.136;2022-08-19T01:40:58;19.70;99.90
12568;DHT22;6349;50.904;6.136;2022-08-19T01:42:59;19.70;99.90
12568;DHT22;6349;50.904;6.136;2022-08-19T01:45:00;19.70;99.90
12568;DHT22;6349;50.904;6.136;2022-08-19T01:47:00;19.60;99.90
12568;DHT22;6349;50.904;6.136;2022-08-19T01:49:03;19.60;99.90
12568;DHT22;6349;50.904;6.136;2022-08-19T01:51:04;19.60;99.90
12568;DHT22;6349;50.904;6.136;2022-08-19T01:53:09;19.50;99.90
12568;DHT22;6349;50.904;6.136;2022-08-19T01:55:13;19.50;99.90
12568;DHT22;6349;50.904;6.136;2022-08-19T01:57:14;19.40;99.90
12568;DHT22;6349;50.904;6.136;2022-08-19T01:59:19;19.40;99.90
12568;DHT22;6349;50.904;6.136;2022-08-19T02:01:21;19.40;99.90
12568;DHT22;6349;50.904;6.136;2022-08-19T02:03:22;19.40;99.90
12568;DHT22;6349;50.904;6.136;2022-08-19T02:05:23;19.40;99.90
12568;DHT22;6349;50.904;6.136;2022-08-19T02:07:24;19.40;99.90
12568;DHT22;6349;50.904;6.136;2022-08-19T02:09:25;19.40;99.90
12568;DHT22;6349;50.904;6.136;2022-08-19T02:11:29;19.40;99.90
12568;DHT22;6349;50.904;6.136;2022-08-19T02:13:32;19.40;99.90
12568;DHT22;6349;50.904;6.136;2022-08-19T02:15:33;19.40;99.90
12568;DHT22;6349;50.904;6.136;2022-08-19T02:17:33;19.40;99.90
12568;DHT22;6349;50.904;6.136;2022-08-19T02:19:34;19.40;99.90
12568;DHT22;6349;50.904;6.136;2022-08-19T02:21:34;19.40;99.90
12568;DHT22;6349;50.904;6.136;2022-08-19T02:23:35;19.40;99.90
12568;DHT22;6349;50.904;6.136;2022-08-19T02:25:36;19.40;99.90
12568;DHT22;6349;50.904;6.136;2022-08-19T02:27:37;19.40;99.90
12568;DHT22;6349;50.904;6.136;2022-08-19T02:29:38;19.40;99.90
12568;DHT22;6349;50.904;6.136;2022-08-19T02:31:39;19.40;99.90
12568;DHT22;6349;50.904;6.136;2022-08-19T02:33:39;19.40;99.90
12568;DHT22;6349;50.904;6.136;2022-08-19T02:35:42;19.40;99.90
12568;DHT22;6349;50.904;6.136;2022-08-19T02:37:44;19.40;99.90
12568;DHT22;6349;50.904;6.136;2022-08-19T02:40:03;19.40;99.90
12568;DHT22;6349;50.904;6.136;2022-08-19T02:42:04;19.30;99.90
12568;DHT22;6349;50.904;6.136;2022-08-19T02:44:05;19.30;99.90
12568;DHT22;6349;50.904;6.136;2022-08-19T02:46:32;19.30;99.90
12568;DHT22;6349;50.904;6.136;2022-08-19T02:48:33;19.20;99.90
12568;DHT22;6349;50.904;6.136;2022-08-19T02:50:36;19.20;99.90
12568;DHT22;6349;50.904;6.136;2022-08-19T02:52:37;19.10;99.90
12568;DHT22;6349;50.904;6.136;2022-08-19T02:54:38;19.10;99.90
12568;DHT22;6349;50.904;6.136;2022-08-19T02:56:40;19.00;99.90
12568;DHT22;6349;50.904;6.136;2022-08-19T02:58:41;19.00;99.90
12568;DHT22;6349;50.904;6.136;2022-08-19T03:00:52;18.90;99.90
12568;DHT22;6349;50.904;6.136;2022-08-19T03:02:53;18.80;99.90
12568;DHT22;6349;50.904;6.136;2022-08-19T03:04:54;18.70;99.90
12568;DHT22;6349;50.904;6.136;2022-08-19T03:06:55;18.70;99.90
12568;DHT22;6349;50.904;6.136;2022-08-19T03:08:55;18.70;99.90
12568;DHT22;6349;50.904;6.136;2022-08-19T03:10:56;18.60;99.90
12568;DHT22;6349;50.904;6.136;2022-08-19T03:12:56;18.60;99.90
12568;DHT22;6349;50.904;6.136;2022-08-19T03:14:57;18.50;99.90
12568;DHT22;6349;50.904;6.136;2022-08-19T03:16:58;18.50;99.90
12568;DHT22;6349;50.904;6.136;2022-08-19T03:18:59;18.50;99.90
12568;DHT22;6349;50.904;6.136;2022-08-19T03:21:00;18.50;99.90
12568;DHT22;6349;50.904;6.136;2022-08-19T03:23:00;18.40;99.90
12568;DHT22;6349;50.904;6.136;2022-08-19T03:25:02;18.40;99.90
12568;DHT22;6349;50.904;6.136;2022-08-19T03:27:03;18.40;99.90
12568;DHT22;6349;50.904;6.136;2022-08-19T03:29:05;18.40;99.90
12568;DHT22;6349;50.904;6.136;2022-08-19T03:31:09;18.40;99.90
12568;DHT22;6349;50.904;6.136;2022-08-19T03:33:11;18.40;99.90
12568;DHT22;6349;50.904;6.136;2022-08-19T03:35:14;18.30;99.90
12568;DHT22;6349;50.904;6.136;2022-08-19T03:37:15;18.30;99.90
12568;DHT22;6349;50.904;6.136;2022-08-19T03:39:16;18.40;99.90
12568;DHT22;6349;50.904;6.136;2022-08-19T03:41:19;18.30;99.90
12568;DHT22;6349;50.904;6.136;2022-08-19T03:43:19;18.30;99.90
12568;DHT22;6349;50.904;6.136;2022-08-19T03:45:20;18.30;99.90
12568;DHT22;6349;50.904;6.136;2022-08-19T03:47:21;18.20;99.90
12568;DHT22;6349;50.904;6.136;2022-08-19T03:49:24;18.30;99.90
12568;DHT22;6349;50.904;6.136;2022-08-19T03:51:27;18.30;99.90
12568;DHT22;6349;50.904;6.136;2022-08-19T03:53:29;18.20;99.90
12568;DHT22;6349;50.904;6.136;2022-08-19T03:55:31;18.20;99.90
12568;DHT22;6349;50.904;6.136;2022-08-19T03:57:31;18.20;99.90
12568;DHT22;6349;50.904;6.136;2022-08-19T03:59:34;18.20;99.90
12568;DHT22;6349;50.904;6.136;2022-08-19T04:01:36;18.20;99.90
12568;DHT22;6349;50.904;6.136;2022-08-19T04:03:37;18.20;99.90
12568;DHT22;6349;50.904;6.136;2022-08-19T04:05:38;18.20;99.90
12568;DHT22;6349;50.904;6.136;2022-08-19T04:07:38;18.20;99.90
12568;DHT22;6349;50.904;6.136;2022-08-19T04:09:39;18.10;99.90
12568;DHT22;6349;50.904;6.136;2022-08-19T04:11:46;18.20;99.90
12568;DHT22;6349;50.904;6.136;2022-08-19T04:13:47;18.10;99.90
12568;DHT22;6349;50.904;6.136;2022-08-19T04:15:48;18.10;99.90
12568;DHT22;6349;50.904;6.136;2022-08-19T04:17:49;18.00;99.90
12568;DHT22;6349;50.904;6.136;2022-08-19T04:19:49;18.10;99.90
12568;DHT22;6349;50.904;6.136;2022-08-19T04:21:53;18.10;99.90
12568;DHT22;6349;50.904;6.136;2022-08-19T04:23:56;18.00;99.90
12568;DHT22;6349;50.904;6.136;2022-08-19T04:25:56;18.00;99.90
12568;DHT22;6349;50.904;6.136;2022-08-19T04:27:57;18.00;99.90
12568;DHT22;6349;50.904;6.136;2022-08-19T04:29:58;17.90;99.90
12568;DHT22;6349;50.904;6.136;2022-08-19T04:31:59;17.90;99.90
12568;DHT22;6349;50.904;6.136;2022-08-19T04:34:01;17.90;99.90
12568;DHT22;6349;50.904;6.136;2022-08-19T04:36:03;17.90;99.90
12568;DHT22;6349;50.904;6.136;2022-08-19T04:38:04;17.90;99.90
12568;DHT22;6349;50.904;6.136;2022-08-19T04:40:06;17.90;99.90
12568;DHT22;6349;50.904;6.136;2022-08-19T04:42:25;17.90;99.90
12568;DHT22;6349;50.904;6.136;2022-08-19T04:44:41;17.90;99.90
12568;DHT22;6349;50.904;6.136;2022-08-19T04:46:42;17.90;99.90
12568;DHT22;6349;50.904;6.136;2022-08-19T04:48:43;17.90;99.90
12568;DHT22;6349;50.904;6.136;2022-08-19T04:50:44;17.90;99.90
12568;DHT22;6349;50.904;6.136;2022-08-19T04:52:45;17.90;99.90
12568;DHT22;6349;50.904;6.136;2022-08-19T04:54:46;17.90;99.90
12568;DHT22;6349;50.904;6.136;2022-08-19T04:56:46;17.90;99.90
12568;DHT22;6349;50.904;6.136;2022-08-19T04:58:47;17.90;99.90
12568;DHT22;6349;50.904;6.136;2022-08-19T05:00:48;17.90;99.90
12568;DHT22;6349;50.904;6.136;2022-08-19T05:02:49;17.90;99.90
12568;DHT22;6349;50.904;6.136;2022-08-19T05:04:51;17.90;99.90
12568;DHT22;6349;50.904;6.136;2022-08-19T05:06:56;17.90;99.90
12568;DHT22;6349;50.904;6.136;2022-08-19T05:08:56;17.90;99.90
12568;DHT22;6349;50.904;6.136;2022-08-19T05:10:57;17.90;99.90
12568;DHT22;6349;50.904;6.136;2022-08-19T05:12:58;17.90;99.90
12568;DHT22;6349;50.904;6.136;2022-08-19T05:14:59;17.90;99.90
12568;DHT22;6349;50.904;6.136;2022-08-19T05:17:01;18.00;99.90
12568;DHT22;6349;50.904;6.136;2022-08-19T05:19:01;18.00;99.90
12568;DHT22;6349;50.904;6.136;2022-08-19T05:21:21;18.10;99.90
12568;DHT22;6349;50.904;6.136;2022-08-19T05:23:40;18.00;99.90
12568;DHT22;6349;50.904;6.136;2022-08-19T05:25:41;18.00;99.90
12568;DHT22;6349;50.904;6.136;2022-08-19T05:27:42;18.00;99.90
12568;DHT22;6349;50.904;6.136;2022-08-19T05:29:42;18.00;99.90
12568;DHT22;6349;50.904;6.136;2022-08-19T05:31:44;18.00;99.90
12568;DHT22;6349;50.904;6.136;2022-08-19T05:33:45;18.00;99.90
12568;DHT22;6349;50.904;6.136;2022-08-19T05:35:45;18.00;99.90
12568;DHT22;6349;50.904;6.136;2022-08-19T05:37:46;18.10;99.90
12568;DHT22;6349;50.904;6.136;2022-08-19T05:39:47;18.10;99.90
12568;DHT22;6349;50.904;6.136;2022-08-19T05:41:53;18.10;99.90
12568;DHT22;6349;50.904;6.136;2022-08-19T05:43:56;18.20;99.90
12568;DHT22;6349;50.904;6.136;2022-08-19T05:45:57;18.20;99.90
12568;DHT22;6349;50.904;6.136;2022-08-19T05:47:58;18.30;99.90
12568;DHT22;6349;50.904;6.136;2022-08-19T05:49:59;18.30;99.90
12568;DHT22;6349;50.904;6.136;2022-08-19T05:52:07;18.30;99.90
12568;DHT22;6349;50.904;6.136;2022-08-19T05:54:09;18.30;99.90
12568;DHT22;6349;50.904;6.136;2022-08-19T05:56:14;18.30;99.90
12568;DHT22;6349;50.904;6.136;2022-08-19T05:58:16;18.30;99.90
12568;DHT22;6349;50.904;6.136;2022-08-19T06:00:17;18.30;99.90
12568;DHT22;6349;50.904;6.136;2022-08-19T06:02:18;18.40;99.90
12568;DHT22;6349;50.904;6.136;2022-08-19T06:04:19;18.40;99.90
12568;DHT22;6349;50.904;6.136;2022-08-19T06:06:20;18.30;99.90
12568;DHT22;6349;50.904;6.136;2022-08-19T06:08:21;18.40;99.90
12568;DHT22;6349;50.904;6.136;2022-08-19T06:10:21;18.40;99.90
12568;DHT22;6349;50.904;6.136;2022-08-19T06:12:22;18.50;99.90
12568;DHT22;6349;50.904;6.136;2022-08-19T06:14:31;18.50;99.90
12568;DHT22;6349;50.904;6.136;2022-08-19T06:16:32;18.50;99.90
12568;DHT22;6349;50.904;6.136;2022-08-19T06:18:35;18.50;99.90
12568;DHT22;6349;50.904;6.136;2022-08-19T06:20:35;18.50;99.90
12568;DHT22;6349;50.904;6.136;2022-08-19T06:22:44;18.60;99.90
12568;DHT22;6349;50.904;6.136;2022-08-19T06:24:45;18.60;99.90
12568;DHT22;6349;50.904;6.136;2022-08-19T06:26:48;18.60;99.90
12568;DHT22;6349;50.904;6.136;2022-08-19T06:28:48;18.60;99.90
12568;DHT22;6349;50.904;6.136;2022-08-19T06:30:49;18.70;99.90
12568;DHT22;6349;50.904;6.136;2022-08-19T06:32:51;18.70;99.90
12568;DHT22;6349;50.904;6.136;2022-08-19T06:34:52;18.70;99.90
12568;DHT22;6349;50.904;6.136;2022-08-19T06:36:53;18.70;99.90
12568;DHT22;6349;50.904;6.136;2022-08-19T06:38:54;18.70;99.90
12568;DHT22;6349;50.904;6.136;2022-08-19T06:41:04;18.80;99.90
12568;DHT22;6349;50.904;6.136;2022-08-19T06:43:05;18.80;99.90
12568;DHT22;6349;50.904;6.136;2022-08-19T06:45:06;18.80;99.90
12568;DHT22;6349;50.904;6.136;2022-08-19T06:47:11;18.80;99.90
12568;DHT22;6349;50.904;6.136;2022-08-19T06:49:13;18.80;99.90
12568;DHT22;6349;50.904;6.136;2022-08-19T06:51:16;18.80;99.90
12568;DHT22;6349;50.904;6.136;2022-08-19T06:53:18;18.80;99.90
12568;DHT22;6349;50.904;6.136;2022-08-19T06:55:19;18.80;99.90
12568;DHT22;6349;50.904;6.136;2022-08-19T06:57:20;18.90;99.90
12568;DHT22;6349;50.904;6.136;2022-08-19T06:59:24;18.90;99.90
12568;DHT22;6349;50.904;6.136;2022-08-19T07:01:27;19.00;99.90
12568;DHT22;6349;50.904;6.136;2022-08-19T07:03:33;19.00;99.90
12568;DHT22;6349;50.904;6.136;2022-08-19T07:05:39;19.10;99.90
12568;DHT22;6349;50.904;6.136;2022-08-19T07:07:40;19.10;99.90
12568;DHT22;6349;50.904;6.136;2022-08-19T07:09:44;19.10;99.90
12568;DHT22;6349;50.904;6.136;2022-08-19T07:11:46;19.20;99.90
12568;DHT22;6349;50.904;6.136;2022-08-19T07:13:47;19.20;99.90
12568;DHT22;6349;50.904;6.136;2022-08-19T07:15:49;19.30;99.90
12568;DHT22;6349;50.904;6.136;2022-08-19T07:17:50;19.30;99.90
12568;DHT22;6349;50.904;6.136;2022-08-19T07:19:52;19.30;99.90
12568;DHT22;6349;50.904;6.136;2022-08-19T07:21:53;19.40;99.90
12568;DHT22;6349;50.904;6.136;2022-08-19T07:23:58;19.30;99.90
12568;DHT22;6349;50.904;6.136;2022-08-19T07:26:17;19.30;99.90
12568;DHT22;6349;50.904;6.136;2022-08-19T07:28:19;19.30;99.90
12568;DHT22;6349;50.904;6.136;2022-08-19T07:30:21;19.40;99.90
12568;DHT22;6349;50.904;6.136;2022-08-19T07:32:23;19.40;99.90
12568;DHT22;6349;50.904;6.136;2022-08-19T07:34:28;19.50;99.90
12568;DHT22;6349;50.904;6.136;2022-08-19T07:36:29;19.50;99.90
12568;DHT22;6349;50.904;6.136;2022-08-19T07:38:32;19.50;99.90
12568;DHT22;6349;50.904;6.136;2022-08-19T07:40:33;19.50;99.90
12568;DHT22;6349;50.904;6.136;2022-08-19T07:42:33;19.50;99.90
12568;DHT22;6349;50.904;6.136;2022-08-19T07:44:34;19.60;99.90
12568;DHT22;6349;50.904;6.136;2022-08-19T07:46:38;19.60;99.90
12568;DHT22;6349;50.904;6.136;2022-08-19T07:48:41;19.60;99.90
12568;DHT22;6349;50.904;6.136;2022-08-19T07:50:42;19.60;99.90
12568;DHT22;6349;50.904;6.136;2022-08-19T07:52:43;19.60;99.90
12568;DHT22;6349;50.904;6.136;2022-08-19T07:54:44;19.60;99.90
12568;DHT22;6349;50.904;6.136;2022-08-19T07:56:45;19.70;99.90
12568;DHT22;6349;50.904;6.136;2022-08-19T07:58:47;19.80;99.90
12568;DHT22;6349;50.904;6.136;2022-08-19T08:00:50;19.80;99.90
12568;DHT22;6349;50.904;6.136;2022-08-19T08:02:52;19.80;99.90
12568;DHT22;6349;50.904;6.136;2022-08-19T08:04:53;19.80;99.90
12568;DHT22;6349;50.904;6.136;2022-08-19T08:07:12;19.80;99.90
12568;DHT22;6349;50.904;6.136;2022-08-19T08:09:39;19.70;99.90
12568;DHT22;6349;50.904;6.136;2022-08-19T08:11:56;19.80;99.90
12568;DHT22;6349;50.904;6.136;2022-08-19T08:13:57;19.80;99.90
12568;DHT22;6349;50.904;6.136;2022-08-19T08:15:58;19.90;99.90
12568;DHT22;6349;50.904;6.136;2022-08-19T08:17:59;19.90;99.90
12568;DHT22;6349;50.904;6.136;2022-08-19T08:19:59;19.90;99.90
12568;DHT22;6349;50.904;6.136;2022-08-19T08:22:01;19.90;99.90
12568;DHT22;6349;50.904;6.136;2022-08-19T08:24:02;20.00;99.90
12568;DHT22;6349;50.904;6.136;2022-08-19T08:26:03;20.00;99.90
12568;DHT22;6349;50.904;6.136;2022-08-19T08:28:05;20.00;99.90
12568;DHT22;6349;50.904;6.136;2022-08-19T08:30:07;20.00;99.90
12568;DHT22;6349;50.904;6.136;2022-08-19T08:32:09;20.00;99.90
12568;DHT22;6349;50.904;6.136;2022-08-19T08:34:11;20.10;99.90
12568;DHT22;6349;50.904;6.136;2022-08-19T08:36:13;20.00;99.90
12568;DHT22;6349;50.904;6.136;2022-08-19T08:38:14;20.10;99.90
12568;DHT22;6349;50.904;6.136;2022-08-19T08:40:39;20.10;99.90
12568;DHT22;6349;50.904;6.136;2022-08-19T08:42:55;20.20;99.90
12568;DHT22;6349;50.904;6.136;2022-08-19T08:45:06;20.10;99.90
12568;DHT22;6349;50.904;6.136;2022-08-19T08:47:16;20.20;99.90
12568;DHT22;6349;50.904;6.136;2022-08-19T08:49:26;20.20;99.90
12568;DHT22;6349;50.904;6.136;2022-08-19T08:53:34;20.10;99.90
12568;DHT22;6349;50.904;6.136;2022-08-19T08:55:36;20.00;99.90
12568;DHT22;6349;50.904;6.136;2022-08-19T08:59:57;19.90;99.90
12568;DHT22;6349;50.904;6.136;2022-08-19T09:01:58;20.00;99.90
12568;DHT22;6349;50.904;6.136;2022-08-19T09:03:59;20.10;99.90
12568;DHT22;6349;50.904;6.136;2022-08-19T09:06:14;20.10;99.90
12568;DHT22;6349;50.904;6.136;2022-08-19T09:08:25;20.20;99.90
12568;DHT22;6349;50.904;6.136;2022-08-19T09:15:11;20.40;99.90
12568;DHT22;6349;50.904;6.136;2022-08-19T09:17:13;20.40;99.90
12568;DHT22;6349;50.904;6.136;2022-08-19T09:19:14;20.50;99.90
12568;DHT22;6349;50.904;6.136;2022-08-19T09:21:18;20.60;99.90
12568;DHT22;6349;50.904;6.136;2022-08-19T09:23:18;20.60;99.90
12568;DHT22;6349;50.904;6.136;2022-08-19T09:25:24;20.60;99.90
12568;DHT22;6349;50.904;6.136;2022-08-19T09:27:26;20.70;99.90
12568;DHT22;6349;50.904;6.136;2022-08-19T09:29:27;20.80;99.90
12568;DHT22;6349;50.904;6.136;2022-08-19T09:31:29;20.80;99.90
12568;DHT22;6349;50.904;6.136;2022-08-19T09:33:30;20.90;99.90
12568;DHT22;6349;50.904;6.136;2022-08-19T09:35:32;21.00;99.90
12568;DHT22;6349;50.904;6.136;2022-08-19T09:37:33;21.10;99.90
12568;DHT22;6349;50.904;6.136;2022-08-19T09:39:33;21.10;99.90
12568;DHT22;6349;50.904;6.136;2022-08-19T09:41:34;21.10;99.90
12568;DHT22;6349;50.904;6.136;2022-08-19T09:43:34;21.20;99.90
12568;DHT22;6349;50.904;6.136;2022-08-19T09:45:36;21.20;99.90
12568;DHT22;6349;50.904;6.136;2022-08-19T09:47:37;21.20;99.90
12568;DHT22;6349;50.904;6.136;2022-08-19T09:49:38;21.30;99.90
12568;DHT22;6349;50.904;6.136;2022-08-19T09:51:39;21.40;99.90
12568;DHT22;6349;50.904;6.136;2022-08-19T09:53:40;21.60;99.90
12568;DHT22;6349;50.904;6.136;2022-08-19T09:55:42;21.60;99.90
12568;DHT22;6349;50.904;6.136;2022-08-19T09:57:43;21.70;99.90
12568;DHT22;6349;50.904;6.136;2022-08-19T09:59:44;21.70;99.90
12568;DHT22;6349;50.904;6.136;2022-08-19T10:01:45;21.80;99.90
12568;DHT22;6349;50.904;6.136;2022-08-19T10:03:48;21.80;99.90
12568;DHT22;6349;50.904;6.136;2022-08-19T10:05:50;21.90;99.90
12568;DHT22;6349;50.904;6.136;2022-08-19T10:07:50;21.90;99.90
12568;DHT22;6349;50.904;6.136;2022-08-19T10:09:51;21.80;99.90
12568;DHT22;6349;50.904;6.136;2022-08-19T10:11:52;21.80;99.90
12568;DHT22;6349;50.904;6.136;2022-08-19T10:13:53;21.80;99.90
12568;DHT22;6349;50.904;6.136;2022-08-19T10:15:57;21.80;99.90
12568;DHT22;6349;50.904;6.136;2022-08-19T10:18:02;21.90;99.90
12568;DHT22;6349;50.904;6.136;2022-08-19T10:20:03;21.80;99.90
12568;DHT22;6349;50.904;6.136;2022-08-19T10:22:05;21.80;99.90
12568;DHT22;6349;50.904;6.136;2022-08-19T10:24:07;21.90;99.90
12568;DHT22;6349;50.904;6.136;2022-08-19T10:26:08;22.10;99.90
12568;DHT22;6349;50.904;6.136;2022-08-19T10:28:09;22.10;99.90
12568;DHT22;6349;50.904;6.136;2022-08-19T10:30:12;22.10;99.90
12568;DHT22;6349;50.904;6.136;2022-08-19T10:32:13;22.10;99.90
12568;DHT22;6349;50.904;6.136;2022-08-19T10:34:14;22.00;99.90
12568;DHT22;6349;50.904;6.136;2022-08-19T10:36:17;22.10;99.90
12568;DHT22;6349;50.904;6.136;2022-08-19T10:38:19;22.20;99.90
12568;DHT22;6349;50.904;6.136;2022-08-19T10:40:19;22.40;99.90
12568;DHT22;6349;50.904;6.136;2022-08-19T10:42:20;22.40;99.90
12568;DHT22;6349;50.904;6.136;2022-08-19T10:44:21;22.50;99.90
12568;DHT22;6349;50.904;6.136;2022-08-19T10:46:24;22.50;99.90
12568;DHT22;6349;50.904;6.136;2022-08-19T10:48:25;22.50;99.90
12568;DHT22;6349;50.904;6.136;2022-08-19T10:50:26;22.60;99.90
12568;DHT22;6349;50.904;6.136;2022-08-19T10:52:48;22.60;99.90
12568;DHT22;6349;50.904;6.136;2022-08-19T10:54:49;22.60;99.90
12568;DHT22;6349;50.904;6.136;2022-08-19T10:57:08;22.60;99.90
12568;DHT22;6349;50.904;6.136;2022-08-19T10:59:09;22.60;99.90
12568;DHT22;6349;50.904;6.136;2022-08-19T11:01:10;22.50;99.90
12568;DHT22;6349;50.904;6.136;2022-08-19T11:03:11;22.50;99.90
12568;DHT22;6349;50.904;6.136;2022-08-19T11:05:12;22.50;99.90
12568;DHT22;6349;50.904;6.136;2022-08-19T11:07:13;22.50;99.90
12568;DHT22;6349;50.904;6.136;2022-08-19T11:09:15;22.60;99.90
12568;DHT22;6349;50.904;6.136;2022-08-19T11:11:16;22.70;99.90
12568;DHT22;6349;50.904;6.136;2022-08-19T11:13:17;22.80;99.90
12568;DHT22;6349;50.904;6.136;2022-08-19T11:15:18;23.00;99.90
12568;DHT22;6349;50.904;6.136;2022-08-19T11:17:18;23.00;99.90
12568;DHT22;6349;50.904;6.136;2022-08-19T11:19:19;23.10;99.90
12568;DHT22;6349;50.904;6.136;2022-08-19T11:21:46;23.20;99.90
12568;DHT22;6349;50.904;6.136;2022-08-19T11:23:51;23.30;99.90
12568;DHT22;6349;50.904;6.136;2022-08-19T11:25:51;23.20;99.90
12568;DHT22;6349;50.904;6.136;2022-08-19T11:27:53;23.20;99.90
12568;DHT22;6349;50.904;6.136;2022-08-19T11:29:54;23.30;99.90
12568;DHT22;6349;50.904;6.136;2022-08-19T11:31:55;23.30;99.90
12568;DHT22;6349;50.904;6.136;2022-08-19T11:33:57;23.30;99.90
12568;DHT22;6349;50.904;6.136;2022-08-19T11:36:00;23.30;99.90
12568;DHT22;6349;50.904;6.136;2022-08-19T11:38:01;23.20;99.90
12568;DHT22;6349;50.904;6.136;2022-08-19T11:40:04;23.20;99.90
12568;DHT22;6349;50.904;6.136;2022-08-19T11:42:06;23.10;99.90
12568;DHT22;6349;50.904;6.136;2022-08-19T11:44:26;23.00;99.90
12568;DHT22;6349;50.904;6.136;2022-08-19T11:46:31;23.10;99.90
12568;DHT22;6349;50.904;6.136;2022-08-19T11:48:32;23.20;99.90
12568;DHT22;6349;50.904;6.136;2022-08-19T11:50:32;23.40;99.90
12568;DHT22;6349;50.904;6.136;2022-08-19T11:52:33;23.50;99.90
12568;DHT22;6349;50.904;6.136;2022-08-19T11:54:33;23.50;99.90
12568;DHT22;6349;50.904;6.136;2022-08-19T11:56:34;23.60;99.90
12568;DHT22;6349;50.904;6.136;2022-08-19T11:58:37;23.60;99.90
12568;DHT22;6349;50.904;6.136;2022-08-19T12:00:39;23.60;99.90
12568;DHT22;6349;50.904;6.136;2022-08-19T12:02:40;23.60;99.90
12568;DHT22;6349;50.904;6.136;2022-08-19T12:04:41;23.40;99.90
12568;DHT22;6349;50.904;6.136;2022-08-19T12:06:42;23.60;99.90
12568;DHT22;6349;50.904;6.136;2022-08-19T12:08:45;23.70;99.90
12568;DHT22;6349;50.904;6.136;2022-08-19T12:10:46;23.70;99.90
12568;DHT22;6349;50.904;6.136;2022-08-19T12:12:47;23.80;99.90
12568;DHT22;6349;50.904;6.136;2022-08-19T12:14:47;23.90;99.90
12568;DHT22;6349;50.904;6.136;2022-08-19T12:16:48;24.00;99.90
12568;DHT22;6349;50.904;6.136;2022-08-19T12:18:50;23.90;99.90
12568;DHT22;6349;50.904;6.136;2022-08-19T12:20:54;24.00;99.90
12568;DHT22;6349;50.904;6.136;2022-08-19T12:22:57;24.00;99.90
12568;DHT22;6349;50.904;6.136;2022-08-19T12:24:58;24.00;99.90
12568;DHT22;6349;50.904;6.136;2022-08-19T12:26:59;24.00;99.90
12568;DHT22;6349;50.904;6.136;2022-08-19T12:29:02;24.10;99.90
12568;DHT22;6349;50.904;6.136;2022-08-19T12:31:04;24.20;99.90
12568;DHT22;6349;50.904;6.136;2022-08-19T12:33:05;24.30;99.90
12568;DHT22;6349;50.904;6.136;2022-08-19T12:35:06;24.40;99.90
12568;DHT22;6349;50.904;6.136;2022-08-19T12:37:09;24.50;99.90
12568;DHT22;6349;50.904;6.136;2022-08-19T12:39:11;24.50;99.90
12568;DHT22;6349;50.904;6.136;2022-08-19T12:41:13;24.70;99.90
12568;DHT22;6349;50.904;6.136;2022-08-19T12:43:15;24.70;99.90
12568;DHT22;6349;50.904;6.136;2022-08-19T12:45:18;24.70;99.90
12568;DHT22;6349;50.904;6.136;2022-08-19T12:47:19;24.80;99.90
12568;DHT22;6349;50.904;6.136;2022-08-19T12:49:20;24.80;99.90
12568;DHT22;6349;50.904;6.136;2022-08-19T12:51:21;24.90;99.90
12568;DHT22;6349;50.904;6.136;2022-08-19T12:53:22;24.90;99.90
12568;DHT22;6349;50.904;6.136;2022-08-19T12:55:23;25.00;99.90
12568;DHT22;6349;50.904;6.136;2022-08-19T12:57:25;25.10;99.90
12568;DHT22;6349;50.904;6.136;2022-08-19T12:59:26;25.10;99.90
12568;DHT22;6349;50.904;6.136;2022-08-19T13:01:27;25.10;99.90
12568;DHT22;6349;50.904;6.136;2022-08-19T13:03:30;25.10;99.90
12568;DHT22;6349;50.904;6.136;2022-08-19T13:05:33;25.20;99.90
12568;DHT22;6349;50.904;6.136;2022-08-19T13:07:34;25.10;99.90
12568;DHT22;6349;50.904;6.136;2022-08-19T13:09:35;25.10;99.90
12568;DHT22;6349;50.904;6.136;2022-08-19T13:11:37;25.20;99.90
12568;DHT22;6349;50.904;6.136;2022-08-19T13:13:42;25.40;99.90
12568;DHT22;6349;50.904;6.136;2022-08-19T13:15:42;25.40;99.90